Time;durP1;ratioP1;P1;durP2;ratioP2;P2;SDS_P1;SDS_P2;PMS_P1;PMS_P2;Temp;Humidity;BMP_temperature;BMP_pressure;BME280_temperature;BME280_humidity;BME280_pressure;Samples;Min_cycle;Max_cycle;Signal;HPM_P1;HPM_P2
2022/04/12 00:01:19;;;;;;;4.17;2.40;;;14.90;47.50;;;-142.21;66.97;112049.66;5053907;28;20812;-74
2022/04/12 00:03:46;;;;;;;2.73;2.33;;;14.80;47.50;;;-142.21;67.77;112049.66;5043172;28;20460;-75
2022/04/12 00:06:13;;;;;;;3.60;2.70;;;14.80;47.50;;;-142.21;67.26;112049.66;5033753;28;20449;-75
2022/04/12 00:08:41;;;;;;;3.57;2.53;;;14.80;47.80;;;-142.21;67.51;112049.66;5047086;28;20487;-74
2022/04/12 00:11:08;;;;;;;3.27;2.40;;;14.70;47.60;;;-142.21;69.51;112049.66;5055632;28;20456;-74
2022/04/12 00:13:36;;;;;;;5.53;2.70;;;14.70;48.10;;;-142.21;68.77;112049.66;5061215;28;20447;-74
2022/04/12 00:16:03;;;;;;;3.90;2.57;;;14.70;47.90;;;-142.21;68.94;112049.66;5070666;28;20498;-75
2022/04/12 00:21:15;;;;;;;5.43;2.50;;;14.60;47.90;;;-142.21;68.46;112049.66;5058954;28;20435;-75
2022/04/12 00:23:43;;;;;;;3.23;2.40;;;14.60;47.90;;;-142.21;68.13;112049.66;5057749;28;20505;-74
2022/04/12 00:26:11;;;;;;;3.60;2.40;;;14.60;48.00;;;-142.21;69.88;112049.66;5053728;28;20450;-74
2022/04/12 00:28:38;;;;;;;2.80;2.50;;;14.50;48.20;;;-142.21;70.54;112049.66;5060134;28;20997;-76
2022/04/12 00:31:05;;;;;;;4.50;2.40;;;14.40;48.40;;;-142.21;72.07;112049.66;5053607;28;20861;-74
2022/04/12 00:33:32;;;;;;;2.70;2.43;;;14.40;48.50;;;-142.21;73.10;112049.66;5058000;28;20447;-75
2022/04/12 00:36:00;;;;;;;3.20;2.50;;;14.20;48.70;;;-142.21;72.99;112049.66;5055931;28;20567;-75
2022/04/12 00:38:31;;;;;;;2.87;2.50;;;14.20;48.70;;;-142.21;72.92;112049.66;5066377;28;20487;-75
2022/04/12 00:41:04;;;;;;;3.30;2.50;;;14.20;48.90;;;-142.21;72.26;112049.66;5054078;28;20460;-75
2022/04/12 00:43:36;;;;;;;3.27;2.50;;;14.20;48.90;;;-142.21;73.06;112049.66;5055225;28;20475;-76
2022/04/12 00:46:03;;;;;;;4.30;2.70;;;14.10;48.90;;;-142.21;72.29;112049.66;5070762;28;20435;-75
2022/04/12 00:48:33;;;;;;;3.83;2.63;;;14.10;48.90;;;-142.21;71.62;112049.66;5052883;28;20543;-75
2022/04/12 00:51:01;;;;;;;2.70;2.40;;;14.10;48.80;;;-142.21;72.33;112049.66;5054372;28;20539;-74
2022/04/12 00:53:30;;;;;;;3.00;2.47;;;14.10;49.00;;;-142.21;73.69;112049.66;5053352;28;20456;-74
2022/04/12 00:55:57;;;;;;;2.30;2.07;;;14.00;49.00;;;-142.21;74.56;112049.66;5052870;28;20570;-75
2022/04/12 00:58:26;;;;;;;3.10;2.50;;;14.00;49.10;;;-142.21;74.35;112049.66;5053622;28;20449;-75
2022/04/12 01:00:53;;;;;;;3.17;2.27;;;13.90;49.10;;;-142.21;74.39;112049.66;5052522;28;20444;-75
2022/04/12 01:03:21;;;;;;;3.13;2.47;;;13.90;49.00;;;-142.21;73.43;112049.66;5048033;28;20452;-74
2022/04/12 01:05:49;;;;;;;2.50;2.30;;;13.90;48.90;;;-142.21;73.59;112049.66;5052764;28;20532;-75
2022/04/12 01:08:18;;;;;;;4.43;2.70;;;13.90;49.10;;;-142.21;73.63;112049.66;5052856;28;20532;-75
2022/04/12 01:10:46;;;;;;;2.90;2.13;;;13.80;49.10;;;-142.21;73.38;112049.66;5053370;28;20797;-75
2022/04/12 01:13:14;;;;;;;2.50;2.27;;;13.80;49.10;;;-142.21;73.29;112049.66;5071191;28;20484;-75
2022/04/12 01:15:43;;;;;;;2.93;2.53;;;13.80;49.40;;;-142.21;73.60;112049.66;5059928;28;20570;-75
2022/04/12 01:18:11;;;;;;;2.60;2.23;;;13.80;49.50;;;-142.21;73.85;112049.66;5071683;28;20463;-74
2022/04/12 01:20:38;;;;;;;3.70;2.53;;;13.70;49.50;;;-142.21;74.05;112049.66;5071339;28;20520;-73
2022/04/12 01:23:12;;;;;;;2.70;2.17;;;13.70;49.50;;;-142.21;74.36;112049.66;5067162;28;20458;-73
2022/04/12 01:25:41;;;;;;;3.70;2.30;;;13.70;49.60;;;-142.21;74.19;112049.66;5033006;28;20429;-75
2022/04/12 01:28:10;;;;;;;3.80;2.30;;;13.70;49.80;;;-142.21;74.53;112049.66;5048145;28;20448;-74
2022/04/12 01:30:38;;;;;;;3.33;2.50;;;13.70;50.00;;;-142.21;74.75;112049.66;5052688;28;20454;-75
2022/04/12 01:33:05;;;;;;;3.03;2.17;;;13.60;50.30;;;-142.21;76.16;112049.66;5051674;28;20524;-75
2022/04/12 01:35:33;;;;;;;2.63;2.20;;;13.60;50.30;;;-142.21;77.44;112049.66;5059978;28;20484;-75
2022/04/12 01:38:01;;;;;;;2.77;2.43;;;13.50;50.60;;;-142.21;76.63;112049.66;5053646;28;20944;-75
2022/04/12 01:40:28;;;;;;;2.60;2.40;;;13.50;50.70;;;-142.21;76.50;112049.66;5064422;28;20464;-75
2022/04/12 01:42:56;;;;;;;3.23;2.50;;;13.40;50.60;;;-142.21;75.73;112049.66;5052529;28;20460;-72
2022/04/12 01:45:24;;;;;;;4.20;2.63;;;13.40;50.60;;;-142.21;76.00;112049.66;5051890;28;20448;-74
2022/04/12 01:47:51;;;;;;;5.60;2.70;;;13.40;50.40;;;-142.21;75.98;112049.66;5063937;28;20439;-75
2022/04/12 01:50:19;;;;;;;2.80;2.30;;;13.40;50.70;;;-142.21;76.95;112049.66;5065826;28;20487;-75
2022/04/12 01:52:46;;;;;;;2.97;2.50;;;13.40;50.80;;;-142.21;77.68;112049.66;5056446;28;20535;-74
2022/04/12 01:55:14;;;;;;;3.13;2.40;;;13.40;50.80;;;-142.21;76.02;112049.66;5056628;28;20484;-74
2022/04/12 01:57:41;;;;;;;2.93;2.63;;;13.40;50.50;;;-142.21;77.19;112049.66;5048353;28;20462;-75
2022/04/12 02:00:11;;;;;;;4.33;2.60;;;13.40;50.80;;;-142.21;77.09;112049.66;5070020;28;20539;-75
2022/04/12 02:02:39;;;;;;;3.63;2.93;;;13.40;50.60;;;-142.21;76.90;112049.66;5055635;28;20444;-75
2022/04/12 02:05:06;;;;;;;3.97;2.70;;;13.40;50.60;;;-142.21;76.69;112049.66;5074333;28;20444;-75
2022/04/12 02:07:34;;;;;;;3.43;2.70;;;13.40;50.60;;;-142.21;76.65;112049.66;5054409;28;20444;-75
2022/04/12 02:10:01;;;;;;;5.20;2.70;;;13.40;50.70;;;-142.21;75.74;112049.66;5056132;28;20546;-75
2022/04/12 02:12:29;;;;;;;3.60;2.53;;;13.40;50.40;;;-142.21;74.81;112049.66;5059705;28;20522;-75
2022/04/12 02:14:57;;;;;;;4.40;2.93;;;13.50;50.20;;;-142.21;75.81;112049.66;5055774;28;20505;-75
2022/04/12 02:17:25;;;;;;;3.17;2.60;;;13.40;50.40;;;-142.21;76.53;112049.66;5073735;28;20546;-74
2022/04/12 02:19:52;;;;;;;3.10;2.70;;;13.40;50.40;;;-142.21;75.50;112049.66;5063049;28;20502;-74
2022/04/12 02:22:19;;;;;;;4.23;3.00;;;13.30;50.50;;;-142.21;76.83;112049.66;5074032;28;20439;-74
2022/04/12 02:24:47;;;;;;;3.77;2.83;;;13.30;51.00;;;-142.21;76.64;112049.66;5058521;28;20443;-74
2022/04/12 02:27:14;;;;;;;4.77;2.87;;;13.30;51.00;;;-142.21;76.47;112049.66;5062106;28;20480;-74
2022/04/12 02:29:41;;;;;;;3.13;2.53;;;13.30;50.70;;;-142.21;76.28;112049.66;5055661;28;20440;-75
2022/04/12 02:32:09;;;;;;;2.90;2.60;;;13.30;50.70;;;-142.21;76.60;112049.66;5068890;28;20454;-73
2022/04/12 02:34:38;;;;;;;3.43;2.77;;;13.20;50.70;;;-142.21;76.28;112049.66;5065544;28;20453;-75
2022/04/12 02:37:05;;;;;;;4.87;2.80;;;13.20;50.60;;;-142.21;76.83;112049.66;5068046;28;20530;-74
2022/04/12 02:39:32;;;;;;;4.60;3.30;;;13.20;51.00;;;-142.21;76.00;112049.66;5072090;28;20449;-74
2022/04/12 02:42:00;;;;;;;3.50;3.00;;;13.20;50.80;;;-142.21;75.66;112049.66;5055335;28;20865;-75
2022/04/12 02:44:27;;;;;;;7.60;3.20;;;13.20;50.60;;;-142.21;75.74;112049.66;5055388;28;20933;-75
2022/04/12 02:46:55;;;;;;;3.90;2.83;;;13.20;51.00;;;-142.21;74.68;112049.66;5055723;28;20539;-74
2022/04/12 02:49:22;;;;;;;3.80;2.97;;;13.30;50.70;;;-142.21;74.04;112049.66;5062683;28;20487;-75
2022/04/12 02:51:51;;;;;;;4.93;3.17;;;13.30;50.70;;;-142.21;74.05;112049.66;5052469;28;20459;-74
2022/04/12 02:54:19;;;;;;;4.13;3.30;;;13.30;50.40;;;-142.21;74.36;112049.66;5054805;28;20510;-74
2022/04/12 02:56:46;;;;;;;4.97;3.17;;;13.30;50.70;;;-142.21;74.65;112049.66;5036486;28;20486;-73
2022/04/12 02:59:13;;;;;;;3.80;3.13;;;13.30;50.70;;;-142.21;73.48;112049.66;5061762;28;20452;-74
2022/04/12 03:01:40;;;;;;;4.10;3.17;;;13.30;50.70;;;-142.21;74.68;112049.66;5054352;28;20519;-74
2022/04/12 03:04:07;;;;;;;3.17;2.70;;;13.30;50.60;;;-142.21;74.18;112049.66;5068644;28;20445;-74
2022/04/12 03:06:34;;;;;;;4.23;3.13;;;13.40;50.80;;;-142.21;73.33;112049.66;5069709;28;20528;-74
2022/04/12 03:09:03;;;;;;;2.73;2.53;;;13.40;50.50;;;-142.21;73.90;112049.66;5055201;28;20445;-74
2022/04/12 03:11:30;;;;;;;3.67;3.00;;;13.40;50.80;;;-142.21;74.28;112049.66;5060756;28;20480;-74
2022/04/12 03:13:57;;;;;;;3.43;3.00;;;13.40;50.80;;;-142.21;74.21;112049.66;5074909;28;20432;-73
2022/04/12 03:16:24;;;;;;;3.47;2.40;;;13.40;50.40;;;-142.21;73.52;112049.66;5065441;28;20488;-75
2022/04/12 03:18:51;;;;;;;4.63;2.73;;;13.30;50.00;;;-142.21;72.88;112049.66;5054450;28;20474;-75
2022/04/12 03:21:18;;;;;;;3.47;3.07;;;13.40;51.30;;;-142.21;73.02;112049.66;5063538;28;20444;-74
2022/04/12 03:23:45;;;;;;;3.50;2.90;;;13.30;50.60;;;-142.21;73.88;112049.66;5054348;28;20472;-74
2022/04/12 03:26:14;;;;;;;4.67;3.17;;;13.40;50.80;;;-142.21;72.14;112049.66;5055348;28;20449;-75
2022/04/12 03:28:41;;;;;;;3.50;2.87;;;13.40;50.10;;;-142.21;71.88;112049.66;5054994;28;20448;-75
2022/04/12 03:31:08;;;;;;;3.47;2.97;;;13.40;50.00;;;-142.21;72.91;112049.66;5064946;28;20451;-75
2022/04/12 03:33:35;;;;;;;3.50;2.97;;;13.40;50.10;;;-142.21;72.51;112049.66;5066403;28;20454;-74
2022/04/12 03:36:02;;;;;;;3.17;2.80;;;13.40;50.20;;;-142.21;72.68;112049.66;5067683;28;20570;-74
2022/04/12 03:38:29;;;;;;;3.30;2.93;;;13.50;50.20;;;-142.21;72.15;112049.66;5073963;28;20809;-74
2022/04/12 03:40:58;;;;;;;3.40;2.97;;;13.50;50.20;;;-142.21;72.77;112049.66;5072451;28;20447;-74
2022/04/12 03:43:27;;;;;;;4.90;3.40;;;13.50;50.20;;;-142.21;72.49;112049.66;5065464;28;20472;-74
2022/04/12 03:45:54;;;;;;;3.83;3.07;;;13.50;50.20;;;-142.21;72.62;112049.66;5059654;28;20959;-74
2022/04/12 03:48:21;;;;;;;3.23;2.93;;;13.40;50.10;;;-142.21;73.00;112049.66;5066678;28;20447;-74
2022/04/12 03:50:49;;;;;;;4.10;2.80;;;13.40;50.20;;;-142.21;72.10;112049.66;5074027;28;20478;-74
2022/04/12 03:53:16;;;;;;;4.20;2.83;;;13.40;50.40;;;-142.21;73.24;112049.66;5058898;28;20987;-74
2022/04/12 03:55:46;;;;;;;3.10;2.80;;;13.40;50.30;;;-142.21;73.06;112049.66;5054018;28;20996;-75
2022/04/12 03:58:19;;;;;;;2.90;2.60;;;13.30;50.20;;;-142.21;73.76;112049.66;5054950;28;20441;-74
2022/04/12 04:00:47;;;;;;;3.00;2.50;;;13.30;50.50;;;-142.21;75.72;112049.66;5054082;28;20444;-74
2022/04/12 04:03:15;;;;;;;3.27;2.60;;;13.20;51.50;;;-142.21;75.93;112049.66;5059954;28;20779;-74
2022/04/12 04:05:42;;;;;;;3.03;2.40;;;13.10;51.30;;;-142.21;78.64;112049.66;5054192;28;20445;-75
2022/04/12 04:08:09;;;;;;;3.73;2.60;;;13.00;51.20;;;-142.21;77.16;112049.66;5053426;28;20526;-75
2022/04/12 04:10:36;;;;;;;3.17;2.50;;;12.90;51.30;;;-142.21;78.55;112049.66;5058376;28;20543;-75
2022/04/12 04:13:08;;;;;;;2.90;2.37;;;12.80;51.70;;;-142.21;78.48;112049.66;5056740;28;20480;-75
2022/04/12 04:15:37;;;;;;;5.27;2.10;;;12.70;51.80;;;-142.21;78.98;112049.66;5055376;28;20468;-74
2022/04/12 04:18:05;;;;;;;3.30;2.50;;;12.50;52.10;;;-142.21;81.28;112049.66;5052106;28;20475;-75
2022/04/12 04:20:33;;;;;;;4.43;2.30;;;12.50;52.00;;;-142.21;83.28;112049.66;5071256;28;20448;-75
2022/04/12 04:23:00;;;;;;;2.63;1.97;;;12.30;52.40;;;-142.21;82.85;112049.66;5034080;28;20452;-73
2022/04/12 04:25:27;;;;;;;3.97;2.20;;;12.30;52.60;;;-142.21;82.54;112049.66;5033081;28;20847;-75
2022/04/12 04:27:54;;;;;;;3.00;2.40;;;12.30;52.60;;;-142.21;83.87;112049.66;5046314;28;20449;-75
2022/04/12 04:30:22;;;;;;;3.57;2.67;;;12.20;52.90;;;-142.21;84.68;112049.66;5051932;28;20509;-73
2022/04/12 04:32:49;;;;;;;2.67;2.33;;;12.20;53.60;;;-142.21;85.73;112049.66;5041509;28;21032;-75
2022/04/12 04:35:19;;;;;;;3.33;2.60;;;12.10;53.00;;;-142.21;86.33;112049.66;5052819;28;20452;-74
2022/04/12 04:37:48;;;;;;;2.73;2.40;;;12.00;53.20;;;-142.21;85.75;112049.66;5036358;28;20445;-75
2022/04/12 04:40:17;;;;;;;3.67;2.67;;;12.00;53.10;;;-142.21;85.10;112049.66;5036634;28;20463;-75
2022/04/12 04:42:45;;;;;;;3.00;2.57;;;12.00;52.80;;;-142.21;84.87;112049.66;5049471;28;20527;-74
2022/04/12 04:45:13;;;;;;;5.43;2.70;;;12.00;52.80;;;-142.21;85.30;112049.66;5051901;28;20467;-74
2022/04/12 04:47:51;;;;;;;4.17;2.63;;;12.00;53.60;;;-142.21;85.57;112049.66;5061962;28;20543;-74
2022/04/12 04:50:22;;;;;;;3.23;2.70;;;12.00;53.40;;;-142.21;84.93;112049.66;5047347;28;20475;-74
2022/04/12 04:52:53;;;;;;;2.63;2.37;;;12.00;52.80;;;-142.21;84.83;112049.66;5053641;28;20452;-74
2022/04/12 04:55:20;;;;;;;4.00;2.73;;;12.00;53.50;;;-142.21;85.01;112049.66;5055947;28;20467;-73
2022/04/12 04:57:48;;;;;;;3.77;2.87;;;11.90;53.50;;;-142.21;85.88;112049.66;5051715;28;20455;-74
2022/04/12 05:00:19;;;;;;;3.47;2.70;;;11.90;53.50;;;-142.21;85.93;112049.66;5036615;28;20455;-74
2022/04/12 05:02:47;;;;;;;2.67;2.37;;;11.80;53.60;;;-142.21;86.26;112049.66;5053415;28;20453;-74
2022/04/12 05:05:15;;;;;;;4.73;3.00;;;11.80;53.60;;;-142.21;86.47;112049.66;5068916;28;20530;-74
2022/04/12 05:07:47;;;;;;;2.93;2.20;;;11.80;53.90;;;-142.21;86.32;112049.66;5072849;28;20447;-74
2022/04/12 05:10:17;;;;;;;3.40;2.37;;;11.80;54.50;;;-142.21;85.71;112049.66;5069667;28;20439;-75
2022/04/12 05:12:44;;;;;;;3.53;2.53;;;11.80;55.00;;;-142.21;85.22;112049.66;5056262;28;20477;-74
2022/04/12 05:15:12;;;;;;;2.97;2.50;;;11.80;54.50;;;-142.21;85.25;112049.66;5061385;28;20448;-74
2022/04/12 05:17:39;;;;;;;3.73;2.47;;;11.90;54.40;;;-142.21;85.70;112049.66;5062741;28;20500;-75
2022/04/12 05:20:09;;;;;;;3.50;2.87;;;11.90;55.00;;;-142.21;85.74;112049.66;5051957;28;20437;-74
2022/04/12 05:22:36;;;;;;;3.27;2.60;;;11.90;55.10;;;-142.21;85.39;112049.66;5051792;28;20429;-74
2022/04/12 05:25:06;;;;;;;4.20;2.70;;;11.90;54.30;;;-142.21;85.50;112049.66;5051316;28;20480;-74
2022/04/12 05:27:35;;;;;;;2.50;2.30;;;12.00;54.70;;;-142.21;86.17;112049.66;5052209;28;20827;-74
2022/04/12 05:30:07;;;;;;;2.53;2.10;;;12.00;55.20;;;-142.21;84.83;112049.66;5057713;28;20771;-74
2022/04/12 05:32:34;;;;;;;3.47;2.23;;;12.00;55.10;;;-142.21;84.68;112049.66;5051431;28;20463;-73
2022/04/12 05:35:01;;;;;;;3.10;2.10;;;12.00;55.10;;;-142.21;84.85;112049.66;5052736;28;20448;-74
2022/04/12 05:37:28;;;;;;;2.93;2.57;;;12.10;54.60;;;-142.21;84.64;112049.66;5054880;28;20512;-75
2022/04/12 05:39:56;;;;;;;3.63;2.50;;;12.10;54.10;;;-142.21;85.94;112049.66;5052881;28;20519;-74
2022/04/12 05:42:25;;;;;;;3.03;2.30;;;12.20;54.40;;;-142.21;85.93;112049.66;5053251;28;20466;-74
2022/04/12 05:44:52;;;;;;;4.33;2.40;;;12.20;55.30;;;-142.21;85.89;112049.66;5052268;28;20505;-74
2022/04/12 05:47:20;;;;;;;2.87;2.27;;;12.20;55.00;;;-142.21;85.26;112049.66;5055149;28;20471;-73
2022/04/12 05:49:47;;;;;;;3.93;2.80;;;12.10;55.20;;;-142.21;85.14;112049.66;5059759;28;20467;-74
2022/04/12 05:52:14;;;;;;;3.93;2.33;;;12.20;54.60;;;-142.21;85.47;112049.66;5052301;28;20451;-74
2022/04/12 05:54:41;;;;;;;2.53;2.30;;;12.20;54.70;;;-142.21;85.16;112049.66;5051695;28;20462;-75
2022/04/12 05:57:08;;;;;;;3.10;2.80;;;12.30;54.70;;;-142.21;85.31;112049.66;5052018;28;20574;-74
2022/04/12 05:59:36;;;;;;;2.93;2.30;;;12.30;54.70;;;-142.21;85.30;112049.66;5051707;28;20534;-74
2022/04/12 06:02:04;;;;;;;4.40;2.60;;;12.40;55.40;;;-142.21;85.21;112049.66;5052028;28;20449;-74
2022/04/12 06:04:31;;;;;;;3.30;2.93;;;12.40;55.00;;;-142.21;85.10;112049.66;5052480;28;20448;-74
2022/04/12 06:06:58;;;;;;;3.83;2.70;;;12.40;54.90;;;-142.21;86.30;112049.66;5051369;28;20452;-74
2022/04/12 06:09:25;;;;;;;4.90;2.57;;;12.50;54.70;;;-142.21;86.37;112049.66;5052365;28;20546;-74
2022/04/12 06:11:52;;;;;;;3.20;2.90;;;12.70;55.50;;;-142.21;86.54;112049.66;5051378;28;20482;-74
2022/04/12 06:14:20;;;;;;;3.23;2.93;;;12.80;55.50;;;-142.21;86.88;112049.66;5052248;28;20804;-73
2022/04/12 06:16:48;;;;;;;4.47;3.20;;;12.90;55.00;;;-142.21;87.05;112049.66;5051613;28;20578;-74
2022/04/12 06:19:15;;;;;;;5.13;3.40;;;13.00;54.70;;;-142.21;87.43;112049.66;5064657;28;20522;-74
2022/04/12 06:21:42;;;;;;;4.23;3.60;;;13.10;54.70;;;-142.21;85.66;112049.66;5051825;28;20448;-74
2022/04/12 06:24:10;;;;;;;4.43;3.30;;;13.30;54.00;;;-142.21;83.62;112049.66;5051871;28;20531;-75
2022/04/12 06:26:37;;;;;;;5.13;3.43;;;13.50;53.40;;;-142.21;84.12;112049.66;5048226;28;20455;-74
2022/04/12 06:29:04;;;;;;;4.60;3.37;;;13.60;53.70;;;-142.21;83.20;112049.66;5031719;28;20460;-74
2022/04/12 06:31:31;;;;;;;6.13;4.03;;;13.70;53.30;;;-142.21;81.85;112049.66;5032260;28;20453;-75
2022/04/12 06:34:00;;;;;;;6.30;3.60;;;13.90;52.90;;;-142.21;82.92;112049.66;5031792;28;20445;-74
2022/04/12 06:36:27;;;;;;;3.47;3.17;;;14.10;53.00;;;-142.21;82.06;112049.66;5035162;28;20491;-75
2022/04/12 06:38:54;;;;;;;3.87;3.00;;;14.30;52.90;;;-142.21;81.95;112049.66;5035495;28;20449;-74
2022/04/12 06:41:22;;;;;;;5.20;3.50;;;14.50;52.50;;;-142.21;82.17;112049.66;5034726;28;20460;-75
2022/04/12 06:43:49;;;;;;;4.63;3.53;;;14.70;52.40;;;-142.21;82.37;112049.66;5035533;28;20536;-74
2022/04/12 06:46:16;;;;;;;3.73;3.30;;;14.80;52.50;;;-142.21;84.71;112049.66;5034915;28;20441;-74
2022/04/12 06:48:43;;;;;;;3.83;3.40;;;15.00;52.90;;;-142.21;83.43;112049.66;5035639;28;20445;-74
2022/04/12 06:51:12;;;;;;;4.70;3.50;;;15.30;52.40;;;-142.21;82.97;112049.66;5052204;28;20445;-74
2022/04/12 06:53:39;;;;;;;3.73;3.20;;;15.60;52.20;;;-142.21;82.50;112049.66;5055433;28;20460;-74
2022/04/12 06:56:07;;;;;;;4.40;3.37;;;15.80;51.90;;;-142.21;84.13;112049.66;5055413;28;20461;-75
2022/04/12 06:58:34;;;;;;;6.53;3.53;;;16.00;51.80;;;-142.21;84.01;112049.66;5054829;28;20452;-74
2022/04/12 07:01:01;;;;;;;4.67;3.50;;;16.30;51.60;;;-142.21;82.59;112049.66;5055459;28;20527;-75
2022/04/12 07:03:28;;;;;;;4.13;3.40;;;16.40;51.30;;;-142.21;81.78;112049.66;5053560;28;20531;-75
2022/04/12 07:05:56;;;;;;;4.30;3.53;;;16.50;50.60;;;-142.21;82.00;112049.66;5055081;28;20448;-74
2022/04/12 07:08:25;;;;;;;3.50;3.20;;;16.70;50.70;;;-142.21;81.45;112049.66;5054133;28;20452;-75
2022/04/12 07:10:52;;;;;;;4.50;3.20;;;16.80;50.20;;;-142.21;79.14;112049.66;5055085;28;20869;-74
2022/04/12 07:13:20;;;;;;;4.77;3.23;;;16.90;49.20;;;-142.21;78.96;112049.66;5054878;28;20484;-75
2022/04/12 07:15:47;;;;;;;3.10;2.73;;;16.90;49.10;;;-142.21;78.11;112049.66;5054617;28;20448;-75
2022/04/12 07:18:14;;;;;;;4.17;3.10;;;17.00;48.50;;;-142.21;78.55;112049.66;5054782;28;20527;-75
2022/04/12 07:20:41;;;;;;;3.83;3.20;;;17.10;48.90;;;-142.21;78.43;112049.66;5047346;28;21140;-75
2022/04/12 07:23:08;;;;;;;4.57;3.83;;;17.10;48.90;;;-142.21;78.06;112049.66;5035100;28;20443;-75
2022/04/12 07:25:37;;;;;;;4.43;3.40;;;17.20;48.90;;;-142.21;77.94;112049.66;5036689;28;20445;-75
2022/04/12 07:28:05;;;;;;;4.80;3.73;;;17.40;49.00;;;-142.21;79.40;112049.66;5060081;28;20482;-75
2022/04/12 07:30:32;;;;;;;3.47;3.17;;;17.50;49.10;;;-142.21;81.50;112049.66;5074925;28;20538;-75
2022/04/12 07:32:59;;;;;;;7.30;3.63;;;17.70;49.50;;;-142.21;79.60;112049.66;5073877;28;20825;-75
2022/04/12 07:35:27;;;;;;;5.67;3.50;;;17.90;49.10;;;-142.21;77.87;112049.66;5074524;28;20509;-75
2022/04/12 07:37:55;;;;;;;5.67;3.50;;;18.00;48.10;;;-142.21;77.28;112049.66;5073942;28;21033;-75
2022/04/12 07:40:22;;;;;;;4.10;3.43;;;18.10;48.00;;;-142.21;76.78;112049.66;5074499;28;20855;-75
2022/04/12 07:42:50;;;;;;;4.57;3.20;;;18.10;47.60;;;-142.21;74.76;112049.66;5073750;28;20534;-74
2022/04/12 07:45:18;;;;;;;4.57;3.30;;;18.10;46.60;;;-142.21;75.34;112049.66;5074565;28;20493;-74
2022/04/12 07:47:45;;;;;;;3.60;3.13;;;18.10;47.00;;;-142.21;73.17;112049.66;5073185;28;20939;-74
2022/04/12 07:50:12;;;;;;;4.57;3.47;;;18.20;46.50;;;-142.21;73.22;112049.66;5064371;28;20740;-74
2022/04/12 07:52:39;;;;;;;4.00;2.87;;;18.30;46.40;;;-142.21;72.77;112049.66;5054569;28;20442;-74
2022/04/12 07:55:08;;;;;;;3.63;3.33;;;18.40;46.30;;;-142.21;72.30;112049.66;5053836;28;20476;-74
2022/04/12 07:57:35;;;;;;;3.47;3.17;;;18.50;46.40;;;-142.21;72.68;112049.66;5056476;28;20879;-74
2022/04/12 08:00:05;;;;;;;3.77;3.07;;;18.70;46.10;;;-142.21;72.48;112049.66;5055415;28;20476;-74
2022/04/12 08:02:32;;;;;;;4.27;2.87;;;18.70;46.00;;;-142.21;72.79;112049.66;5055063;28;20475;-74
2022/04/12 08:05:00;;;;;;;3.50;2.50;;;18.70;46.40;;;-142.21;73.30;112049.66;5056126;28;20448;-75
2022/04/12 08:07:27;;;;;;;4.27;3.23;;;18.70;46.20;;;-142.21;73.96;112049.66;5055516;28;20255;-74
2022/04/12 08:09:54;;;;;;;3.03;2.63;;;18.70;46.00;;;-142.21;74.18;112049.66;5055333;28;20208;-74
2022/04/12 08:12:21;;;;;;;3.87;3.07;;;18.60;46.10;;;-142.21;72.44;112049.66;5054727;28;20480;-74
2022/04/12 08:14:49;;;;;;;3.93;2.60;;;18.60;46.60;;;-142.21;71.60;112049.66;5052132;28;20452;-75
2022/04/12 08:17:18;;;;;;;3.87;3.03;;;18.70;46.00;;;-142.21;74.05;112049.66;5033650;28;20571;-75
2022/04/12 08:19:45;;;;;;;3.53;3.20;;;18.70;46.70;;;-142.21;72.40;112049.66;5034112;28;20467;-74
2022/04/12 08:22:12;;;;;;;2.90;2.57;;;18.80;45.80;;;-142.21;72.60;112049.66;5033937;28;21051;-74
2022/04/12 08:24:39;;;;;;;5.23;3.40;;;18.80;46.00;;;-142.21;71.79;112049.66;5033983;28;20857;-74
2022/04/12 08:27:07;;;;;;;3.53;2.90;;;18.90;45.80;;;-142.21;69.33;112049.66;5033866;28;20507;-74
2022/04/12 08:29:34;;;;;;;3.50;2.80;;;19.00;45.70;;;-142.21;68.50;112049.66;5033424;28;20456;-74
2022/04/12 08:32:01;;;;;;;4.30;3.27;;;19.00;45.70;;;-142.21;69.96;112049.66;5039536;28;20527;-74
2022/04/12 08:34:30;;;;;;;4.73;3.27;;;19.20;46.00;;;-142.21;70.11;112049.66;5064311;28;20475;-74
2022/04/12 08:36:57;;;;;;;5.03;2.87;;;19.30;45.60;;;-142.21;68.06;112049.66;5053410;28;20487;-74
2022/04/12 08:39:24;;;;;;;4.53;3.20;;;19.40;45.40;;;-142.21;68.67;112049.66;5053359;28;20444;-74
2022/04/12 08:41:53;;;;;;;4.73;3.13;;;19.60;45.50;;;-142.21;70.79;112049.66;5053517;28;20484;-74
2022/04/12 08:44:22;;;;;;;5.77;3.20;;;19.70;45.90;;;-142.21;67.78;112049.66;5053391;28;20292;-74
2022/04/12 08:46:49;;;;;;;3.47;3.13;;;19.90;44.80;;;-142.21;67.79;112049.66;5052371;28;20532;-74
2022/04/12 08:49:16;;;;;;;3.43;2.90;;;20.00;45.00;;;-142.21;68.58;112049.66;5053179;28;20206;-74
2022/04/12 08:51:47;;;;;;;3.20;2.90;;;20.10;45.20;;;-142.21;70.28;112049.66;5052679;28;20220;-74
2022/04/12 08:54:15;;;;;;;3.10;2.70;;;20.40;45.20;;;-142.21;67.30;112049.66;5052839;28;20300;-74
2022/04/12 08:56:43;;;;;;;3.37;2.77;;;20.80;45.00;;;-142.21;66.82;112049.66;5052326;28;20209;-74
2022/04/12 08:59:10;;;;;;;3.83;2.57;;;21.30;44.50;;;-142.21;65.60;112049.66;5053155;28;20201;-75
2022/04/12 09:01:38;;;;;;;3.63;2.90;;;21.90;44.00;;;-142.21;67.58;112049.66;5050445;28;20206;-74
2022/04/12 09:04:06;;;;;;;3.23;2.80;;;22.20;43.90;;;-142.21;68.67;112049.66;5057160;28;20197;-74
2022/04/12 09:06:33;;;;;;;5.63;2.57;;;22.50;43.20;;;-142.21;67.91;112049.66;5073178;28;20245;-74
2022/04/12 09:09:12;;;;;;;2.70;2.50;;;23.10;43.00;;;-142.21;66.88;112049.66;5072129;28;20215;-74
2022/04/12 09:11:41;;;;;;;4.20;2.70;;;23.60;41.40;;;-142.21;66.32;112049.66;5066891;28;20719;-75
2022/04/12 09:14:14;;;;;;;2.77;2.43;;;24.10;41.80;;;-142.21;69.51;112049.66;5069068;28;20213;-75
2022/04/12 09:16:46;;;;;;;2.60;2.40;;;24.60;41.00;;;-142.21;65.00;112049.66;5040051;28;20205;-73
2022/04/12 09:19:14;;;;;;;3.40;2.40;;;25.00;40.10;;;-142.21;64.00;112049.66;5050693;28;20185;-73
2022/04/12 09:21:48;;;;;;;2.80;2.40;;;25.40;40.00;;;-142.21;63.60;112049.66;5046333;28;20685;-74
2022/04/12 09:24:22;;;;;;;2.60;2.10;;;25.80;38.80;;;-142.21;62.64;112049.66;5051709;28;20301;-73
2022/04/12 09:26:57;;;;;;;3.63;2.23;;;26.30;38.30;;;-142.21;65.22;112049.66;5048531;28;20257;-73
2022/04/12 09:29:30;;;;;;;3.17;2.10;;;26.90;38.10;;;-142.21;63.36;112049.66;5052175;28;20205;-74
2022/04/12 09:31:59;;;;;;;2.93;2.50;;;27.50;37.10;;;-142.21;61.79;112049.66;5052174;28;20203;-73
2022/04/12 09:34:28;;;;;;;2.20;2.00;;;27.90;37.00;;;-142.21;64.88;112049.66;5052166;28;20232;-74
2022/04/12 09:36:55;;;;;;;2.93;2.03;;;28.00;36.40;;;-142.21;62.78;112049.66;5049956;28;20208;-74
2022/04/12 09:39:24;;;;;;;2.80;1.83;;;27.80;36.20;;;-142.21;61.50;112049.66;5058118;28;20201;-74
2022/04/12 09:41:56;;;;;;;2.20;1.90;;;27.40;37.00;;;-142.21;62.97;112049.66;5038824;28;20202;-74
2022/04/12 09:44:23;;;;;;;2.73;1.43;;;27.00;36.50;;;-142.21;65.89;112049.66;5050924;28;20195;-75
2022/04/12 09:46:53;;;;;;;1.70;1.60;;;26.70;36.60;;;-142.21;61.31;112049.66;5045962;28;20261;-74
2022/04/12 09:49:20;;;;;;;2.73;2.13;;;26.50;36.80;;;-142.21;57.50;112049.66;5051098;28;20201;-74
2022/04/12 09:51:50;;;;;;;2.00;1.70;;;26.40;36.40;;;-142.21;59.60;112049.66;5049960;28;20284;-74
2022/04/12 09:54:24;;;;;;;2.07;1.87;;;26.30;36.40;;;-142.21;62.88;112049.66;5044232;28;20206;-73
2022/04/12 09:56:57;;;;;;;4.07;1.80;;;26.10;36.20;;;-142.21;63.58;112049.66;5047017;28;20201;-73
2022/04/12 09:59:25;;;;;;;1.60;1.50;;;26.10;36.20;;;-142.21;59.90;112049.66;5034723;28;20189;-74
2022/04/12 10:01:53;;;;;;;2.00;1.60;;;25.90;36.10;;;-142.21;66.17;112049.66;5050542;28;20286;-74
2022/04/12 10:04:20;;;;;;;1.60;1.50;;;25.80;36.50;;;-142.21;60.97;112049.66;5051188;28;20205;-73
2022/04/12 10:06:49;;;;;;;1.93;1.50;;;25.80;36.20;;;-142.21;58.91;112049.66;5050674;28;20202;-74